Time;durP1;ratioP1;P1;durP2;ratioP2;P2;SDS_P1;SDS_P2;PMS_P1;PMS_P2;Temp;Humidity;BMP_temperature;BMP_pressure;BME280_temperature;BME280_humidity;BME280_pressure;Samples;Min_cycle;Max_cycle;Signal;HPM_P1;HPM_P2
2022/03/16 00:01:01;;;;;;;;;;;;;;;9.26;42.26;102534.34;4970958;28;20008;-72
2022/03/16 00:03:26;;;;;;;;;;;;;;;9.25;42.08;102522.69;4970742;28;20030;-73
2022/03/16 00:05:51;;;;;;;;;;;;;;;9.20;41.60;102521.66;4978845;28;19963;-72
2022/03/16 00:08:16;;;;;;;;;;;;;;;9.18;41.68;102516.47;5028214;28;19968;-74
2022/03/16 00:10:42;;;;;;;;;;;;;;;9.10;41.58;102514.00;5031994;28;19925;-72
2022/03/16 00:13:07;;;;;;;;;;;;;;;9.09;41.22;102517.78;5034982;28;19921;-73
2022/03/16 00:15:32;;;;;;;;;;;;;;;9.03;41.20;102525.91;5038543;28;19927;-73
2022/03/16 00:17:57;;;;;;;;;;;;;;;9.02;41.78;102516.13;5051202;28;20342;-72
2022/03/16 00:20:23;;;;;;;;;;;;;;;8.94;40.51;102523.44;5058510;28;19975;-73
2022/03/16 00:22:48;;;;;;;;;;;;;;;8.92;40.49;102516.56;5059464;28;19960;-73
2022/03/16 00:25:13;;;;;;;;;;;;;;;8.91;41.37;102521.16;5058340;28;19953;-73
2022/03/16 00:27:39;;;;;;;;;;;;;;;8.93;40.96;102520.94;5057985;28;20023;-73
2022/03/16 00:30:04;;;;;;;;;;;;;;;8.94;40.85;102522.59;5050675;28;19925;-74
2022/03/16 00:32:30;;;;;;;;;;;;;;;8.91;41.01;102521.16;5018529;28;20277;-74
2022/03/16 00:34:55;;;;;;;;;;;;;;;8.83;40.75;102528.66;5019130;28;19910;-73
2022/03/16 00:37:20;;;;;;;;;;;;;;;8.82;40.90;102529.69;5018424;28;19929;-72
2022/03/16 00:39:45;;;;;;;;;;;;;;;8.79;40.71;102525.56;5018155;28;19992;-73
2022/03/16 00:42:11;;;;;;;;;;;;;;;8.70;41.38;102537.63;5018273;28;19921;-74
2022/03/16 00:44:36;;;;;;;;;;;;;;;8.75;41.01;102531.59;5018568;28;19914;-71
2022/03/16 00:47:05;;;;;;;;;;;;;;;8.56;41.01;102525.19;5018899;28;19921;-72
2022/03/16 00:49:30;;;;;;;;;;;;;;;8.57;41.54;102534.13;5000703;28;20418;-73
2022/03/16 00:51:55;;;;;;;;;;;;;;;8.56;40.79;102527.91;5018733;28;20012;-73
2022/03/16 00:54:20;;;;;;;;;;;;;;;8.37;41.55;102531.44;5018523;28;20269;-73
2022/03/16 00:56:45;;;;;;;;;;;;;;;8.47;41.10;102529.16;5029952;28;19967;-72
2022/03/16 00:59:11;;;;;;;;;;;;;;;8.50;41.78;102528.75;5038622;28;19917;-74
2022/03/16 01:01:36;;;;;;;;;;;;;;;8.50;41.15;102539.56;5038171;28;19917;-73
2022/03/16 01:04:01;;;;;;;;;;;;;;;8.49;41.95;102535.19;5048591;28;19970;-73
2022/03/16 01:06:27;;;;;;;;;;;;;;;8.56;41.66;102541.44;5058098;28;19917;-72
2022/03/16 01:08:52;;;;;;;;;;;;;;;8.65;41.59;102544.72;5058332;28;19979;-75
2022/03/16 01:11:18;;;;;;;;;;;;;;;8.49;43.06;102547.88;5058037;28;19923;-72
2022/03/16 01:13:43;;;;;;;;;;;;;;;8.50;42.99;102550.38;5058960;28;19921;-72
2022/03/16 01:16:09;;;;;;;;;;;;;;;8.52;42.10;102556.41;5058085;28;19917;-72
2022/03/16 01:18:34;;;;;;;;;;;;;;;8.40;42.29;102549.97;5057579;28;20319;-73
2022/03/16 01:21:03;;;;;;;;;;;;;;;8.45;42.29;102544.75;5057605;28;20384;-73
2022/03/16 01:23:28;;;;;;;;;;;;;;;8.44;42.89;102550.38;5056307;28;19917;-73
2022/03/16 01:25:53;;;;;;;;;;;;;;;8.40;42.94;102552.69;5052548;28;20008;-73
2022/03/16 01:28:19;;;;;;;;;;;;;;;8.25;43.53;102553.91;5015820;28;19929;-74
2022/03/16 01:30:44;;;;;;;;;;;;;;;8.39;43.22;102559.09;5014998;28;19935;-73
2022/03/16 01:33:09;;;;;;;;;;;;;;;8.41;42.56;102557.03;5015031;28;20414;-74
2022/03/16 01:35:35;;;;;;;;;;;;;;;8.31;42.79;102561.22;5014806;28;19964;-73
2022/03/16 01:38:00;;;;;;;;;;;;;;;8.34;42.69;102558.91;5015412;28;19918;-73
2022/03/16 01:40:25;;;;;;;;;;;;;;;8.38;41.54;102562.03;5014493;28;20374;-74
2022/03/16 01:42:51;;;;;;;;;;;;;;;8.48;41.69;102566.00;5014707;28;19921;-74
2022/03/16 01:45:16;;;;;;;;;;;;;;;8.05;44.34;102565.50;5014552;28;19928;-72
2022/03/16 01:47:41;;;;;;;;;;;;;;;8.19;43.39;102558.22;5014339;28;19957;-74
2022/03/16 01:50:08;;;;;;;;;;;;;;;8.13;43.32;102556.38;5030036;28;20392;-74
2022/03/16 01:52:33;;;;;;;;;;;;;;;8.17;43.23;102563.00;5014492;28;19925;-74
2022/03/16 01:55:02;;;;;;;;;;;;;;;8.36;43.52;102558.69;5029555;28;19921;-73
2022/03/16 01:57:29;;;;;;;;;;;;;;;8.32;42.96;102552.88;5031454;28;20266;-74
2022/03/16 01:59:54;;;;;;;;;;;;;;;8.43;42.88;102554.94;5049495;28;19925;-73
2022/03/16 02:02:19;;;;;;;;;;;;;;;8.36;42.89;102545.19;5034128;28;19913;-73
2022/03/16 02:04:44;;;;;;;;;;;;;;;8.26;42.81;102550.13;5050889;28;19936;-73
2022/03/16 02:07:10;;;;;;;;;;;;;;;8.30;42.98;102551.41;5053947;28;19960;-73
2022/03/16 02:09:35;;;;;;;;;;;;;;;8.32;42.21;102549.34;5053876;28;19928;-74
2022/03/16 02:12:01;;;;;;;;;;;;;;;8.08;42.31;102554.28;5053772;28;19979;-73
2022/03/16 02:14:26;;;;;;;;;;;;;;;8.18;42.85;102550.34;5053689;28;20003;-73
2022/03/16 02:16:51;;;;;;;;;;;;;;;8.14;42.77;102549.91;5054256;28;19916;-73
2022/03/16 02:19:17;;;;;;;;;;;;;;;8.11;41.86;102553.06;5053534;28;19925;-73
2022/03/16 02:21:45;;;;;;;;;;;;;;;8.08;42.28;102546.19;5035385;28;19920;-72
2022/03/16 02:24:10;;;;;;;;;;;;;;;8.09;42.32;102539.72;5019550;28;19922;-72
2022/03/16 02:26:36;;;;;;;;;;;;;;;7.98;41.98;102534.09;5013713;28;19962;-73
2022/03/16 02:29:02;;;;;;;;;;;;;;;7.97;42.13;102533.25;4996680;28;19922;-72
2022/03/16 02:31:27;;;;;;;;;;;;;;;8.01;41.33;102539.91;5013834;28;20281;-71
2022/03/16 02:33:53;;;;;;;;;;;;;;;8.00;42.49;102532.03;5013732;28;19924;-73
2022/03/16 02:36:18;;;;;;;;;;;;;;;7.97;42.29;102527.03;5013309;28;19921;-73
2022/03/16 02:38:44;;;;;;;;;;;;;;;7.91;42.40;102527.88;5013696;28;19917;-72
2022/03/16 02:41:09;;;;;;;;;;;;;;;7.89;42.36;102536.19;4996378;28;19969;-73
2022/03/16 02:43:34;;;;;;;;;;;;;;;7.81;43.11;102536.38;5013417;28;19917;-72
2022/03/16 02:46:00;;;;;;;;;;;;;;;7.89;42.40;102543.44;5013721;28;19922;-73
2022/03/16 02:48:25;;;;;;;;;;;;;;;7.86;42.45;102536.59;5013295;28;20056;-74
2022/03/16 02:50:50;;;;;;;;;;;;;;;7.81;41.78;102532.84;5013607;28;19922;-74
2022/03/16 02:53:16;;;;;;;;;;;;;;;7.76;43.15;102536.16;5014142;28;20328;-73
2022/03/16 02:55:41;;;;;;;;;;;;;;;7.70;42.78;102539.66;5015857;28;19933;-73
2022/03/16 02:58:07;;;;;;;;;;;;;;;7.57;42.52;102536.09;5033420;28;19963;-73
2022/03/16 03:00:33;;;;;;;;;;;;;;;7.54;42.72;102545.44;5033378;28;19959;-73
2022/03/16 03:02:58;;;;;;;;;;;;;;;7.51;42.64;102545.84;5030074;28;20285;-72
2022/03/16 03:05:23;;;;;;;;;;;;;;;7.59;42.54;102552.94;5013415;28;19928;-73
2022/03/16 03:07:48;;;;;;;;;;;;;;;7.60;42.50;102558.13;5029155;28;19921;-72
2022/03/16 03:10:14;;;;;;;;;;;;;;;7.63;42.57;102557.72;5013118;28;20285;-72
2022/03/16 03:12:39;;;;;;;;;;;;;;;7.66;41.94;102556.50;5013138;28;19929;-73
2022/03/16 03:15:05;;;;;;;;;;;;;;;7.67;42.12;102553.59;5013183;28;19921;-72
2022/03/16 03:17:31;;;;;;;;;;;;;;;7.50;42.51;102552.31;5017633;28;20032;-73
2022/03/16 03:19:56;;;;;;;;;;;;;;;7.45;42.71;102559.31;5048287;28;20392;-74
2022/03/16 03:22:25;;;;;;;;;;;;;;;7.44;42.01;102547.72;5051304;28;19921;-74
2022/03/16 03:24:50;;;;;;;;;;;;;;;7.41;42.13;102558.06;5052456;28;19928;-73
2022/03/16 03:27:15;;;;;;;;;;;;;;;7.52;41.95;102552.09;5052329;28;19921;-74
2022/03/16 03:29:41;;;;;;;;;;;;;;;7.44;41.89;102552.25;5052280;28;19927;-74
2022/03/16 03:32:06;;;;;;;;;;;;;;;7.28;42.80;102544.50;5052871;28;19916;-72
2022/03/16 03:34:31;;;;;;;;;;;;;;;7.25;42.90;102553.03;5052210;28;19917;-73
2022/03/16 03:36:57;;;;;;;;;;;;;;;7.15;43.35;102559.59;5052667;28;20340;-73
2022/03/16 03:39:22;;;;;;;;;;;;;;;7.28;43.25;102568.81;5072261;28;19921;-73
2022/03/16 03:41:47;;;;;;;;;;;;;;;7.16;43.67;102574.78;5072004;28;19920;-73
2022/03/16 03:44:12;;;;;;;;;;;;;;;7.31;43.63;102573.78;5072549;28;19920;-73
2022/03/16 03:46:37;;;;;;;;;;;;;;;7.39;43.48;102579.88;5070550;28;19956;-74
2022/03/16 03:49:03;;;;;;;;;;;;;;;7.35;42.20;102573.19;5071552;28;19921;-75
2022/03/16 03:51:28;;;;;;;;;;;;;;;7.44;42.63;102577.41;5072541;28;19928;-73
2022/03/16 03:53:53;;;;;;;;;;;;;;;7.36;42.47;102569.47;5072921;28;20366;-73
2022/03/16 03:56:18;;;;;;;;;;;;;;;7.35;42.13;102567.78;5064205;28;20285;-73
2022/03/16 03:58:45;;;;;;;;;;;;;;;7.34;42.98;102559.91;5052795;28;19948;-74
2022/03/16 04:01:10;;;;;;;;;;;;;;;7.32;42.18;102554.72;5033050;28;19928;-73
2022/03/16 04:03:35;;;;;;;;;;;;;;;7.22;42.86;102548.84;5032178;28;19917;-73
2022/03/16 04:06:00;;;;;;;;;;;;;;;7.36;42.81;102539.78;5031973;28;19932;-73
2022/03/16 04:08:26;;;;;;;;;;;;;;;7.09;43.42;102536.13;5031891;28;20011;-73
2022/03/16 04:10:51;;;;;;;;;;;;;;;7.09;43.73;102529.88;5032544;28;20291;-72
2022/03/16 04:13:16;;;;;;;;;;;;;;;7.04;43.88;102538.59;5031900;28;19917;-72
2022/03/16 04:15:41;;;;;;;;;;;;;;;7.07;43.62;102546.28;5042754;28;20015;-74
2022/03/16 04:18:07;;;;;;;;;;;;;;;7.07;43.41;102535.47;5066169;28;19929;-73
2022/03/16 04:20:32;;;;;;;;;;;;;;;7.12;43.66;102540.28;5051600;28;19935;-74
2022/03/16 04:22:57;;;;;;;;;;;;;;;7.12;43.78;102537.59;5052461;28;19936;-72
2022/03/16 04:25:22;;;;;;;;;;;;;;;6.98;43.95;102533.97;5051644;28;19955;-73
2022/03/16 04:27:48;;;;;;;;;;;;;;;6.94;44.01;102524.59;5066498;28;20387;-75
2022/03/16 04:30:13;;;;;;;;;;;;;;;7.14;43.64;102525.56;5066366;28;19994;-73
2022/03/16 04:32:38;;;;;;;;;;;;;;;7.05;43.81;102513.25;5051986;28;19925;-73
2022/03/16 04:35:04;;;;;;;;;;;;;;;7.17;44.15;102514.34;5052279;28;19921;-72
2022/03/16 04:37:29;;;;;;;;;;;;;;;7.19;44.17;102516.84;5051897;28;19924;-74
2022/03/16 04:39:54;;;;;;;;;;;;;;;7.07;43.98;102521.19;5051594;28;19921;-73
2022/03/16 04:42:19;;;;;;;;;;;;;;;7.11;44.34;102517.00;5051631;28;19916;-74
2022/03/16 04:44:45;;;;;;;;;;;;;;;7.17;43.85;102521.59;5051417;28;20360;-73
2022/03/16 04:47:10;;;;;;;;;;;;;;;7.13;43.76;102520.34;5052358;28;19939;-73
2022/03/16 04:49:35;;;;;;;;;;;;;;;6.86;45.18;102530.16;5051509;28;19921;-74
2022/03/16 04:52:02;;;;;;;;;;;;;;;6.96;44.95;102532.50;5051633;28;20007;-72
2022/03/16 04:54:28;;;;;;;;;;;;;;;6.90;45.31;102527.88;5051824;28;19927;-73
2022/03/16 04:56:54;;;;;;;;;;;;;;;6.89;44.89;102528.94;5049039;28;19970;-73
2022/03/16 04:59:19;;;;;;;;;;;;;;;6.74;45.53;102547.91;5035224;28;19954;-72
2022/03/16 05:01:44;;;;;;;;;;;;;;;6.74;45.44;102549.78;5054943;28;19920;-72
2022/03/16 05:04:09;;;;;;;;;;;;;;;6.93;45.20;102536.41;5055263;28;19917;-73
2022/03/16 05:06:35;;;;;;;;;;;;;;;7.02;45.13;102540.63;5055194;28;19983;-73
2022/03/16 05:09:00;;;;;;;;;;;;;;;6.91;45.22;102532.25;5054973;28;19921;-73
2022/03/16 05:11:25;;;;;;;;;;;;;;;6.92;45.39;102539.31;5056323;28;20432;-73
2022/03/16 05:13:50;;;;;;;;;;;;;;;6.81;44.98;102542.59;5037595;28;19919;-73
2022/03/16 05:16:16;;;;;;;;;;;;;;;7.02;45.36;102546.03;5054827;28;19927;-73
2022/03/16 05:18:44;;;;;;;;;;;;;;;7.01;45.14;102544.34;5055029;28;20396;-73
2022/03/16 05:21:09;;;;;;;;;;;;;;;7.02;44.83;102543.31;5044640;28;19921;-74
2022/03/16 05:23:35;;;;;;;;;;;;;;;6.94;44.08;102539.94;5035326;28;19913;-73
2022/03/16 05:26:00;;;;;;;;;;;;;;;6.90;44.92;102542.22;5035231;28;19917;-72
2022/03/16 05:28:25;;;;;;;;;;;;;;;7.02;44.74;102543.31;5034837;28;19975;-72
2022/03/16 05:30:51;;;;;;;;;;;;;;;6.42;47.07;102537.75;5050025;28;20007;-72
2022/03/16 05:33:16;;;;;;;;;;;;;;;6.46;47.23;102541.69;5054860;28;19951;-72
2022/03/16 05:35:41;;;;;;;;;;;;;;;6.92;45.87;102548.25;5038287;28;20467;-75
2022/03/16 05:38:08;;;;;;;;;;;;;;;6.86;46.49;102540.09;5050426;28;19913;-74
2022/03/16 05:40:33;;;;;;;;;;;;;;;6.82;46.53;102542.38;5034291;28;19928;-72
2022/03/16 05:42:58;;;;;;;;;;;;;;;6.56;47.01;102546.78;5034449;28;20369;-73
2022/03/16 05:45:24;;;;;;;;;;;;;;;6.58;47.13;102542.00;5034005;28;19959;-72
2022/03/16 05:47:49;;;;;;;;;;;;;;;6.68;47.38;102550.56;5034012;28;19925;-73
2022/03/16 05:50:14;;;;;;;;;;;;;;;6.71;47.26;102550.19;5034695;28;19925;-73
2022/03/16 05:52:41;;;;;;;;;;;;;;;7.10;46.20;102554.00;5034183;28;20324;-73
2022/03/16 05:55:07;;;;;;;;;;;;;;;7.25;46.02;102553.84;5034105;28;20278;-71
2022/03/16 05:57:33;;;;;;;;;;;;;;;7.57;45.52;102563.94;5067070;28;20391;-72
2022/03/16 05:59:58;;;;;;;;;;;;;;;7.45;45.22;102562.00;5054228;28;19956;-73
2022/03/16 06:02:23;;;;;;;;;;;;;;;7.32;45.82;102556.56;5053990;28;19917;-72
2022/03/16 06:04:49;;;;;;;;;;;;;;;7.32;46.08;102553.88;5054454;28;19920;-74
2022/03/16 06:07:14;;;;;;;;;;;;;;;7.17;46.41;102559.41;5035031;28;20351;-72
2022/03/16 06:09:40;;;;;;;;;;;;;;;7.14;46.50;102559.81;5053910;28;19970;-72
2022/03/16 06:12:06;;;;;;;;;;;;;;;6.77;46.91;102561.03;5052429;28;19925;-74
2022/03/16 06:14:31;;;;;;;;;;;;;;;6.58;47.68;102560.91;5053364;28;20296;-73
2022/03/16 06:16:57;;;;;;;;;;;;;;;6.87;47.13;102572.31;5053632;28;19920;-73
2022/03/16 06:19:23;;;;;;;;;;;;;;;7.17;46.62;102564.81;5046280;28;19921;-74
2022/03/16 06:21:48;;;;;;;;;;;;;;;7.23;46.33;102565.88;5033165;28;20357;-73
2022/03/16 06:24:14;;;;;;;;;;;;;;;6.93;47.34;102563.38;5032895;28;20012;-74
2022/03/16 06:26:39;;;;;;;;;;;;;;;6.87;47.24;102566.91;5032071;28;19925;-73
2022/03/16 06:29:05;;;;;;;;;;;;;;;7.41;46.32;102572.41;5032951;28;19913;-73
2022/03/16 06:31:30;;;;;;;;;;;;;;;7.49;46.41;102577.63;5032624;28;20293;-74
2022/03/16 06:33:55;;;;;;;;;;;;;;;7.42;46.02;102574.06;5032785;28;19932;-73
2022/03/16 06:36:21;;;;;;;;;;;;;;;7.55;45.95;102578.69;5032176;28;19940;-72
2022/03/16 06:38:46;;;;;;;;;;;;;;;7.24;46.64;102579.19;5031070;28;20552;-74
2022/03/16 06:41:11;;;;;;;;;;;;;;;7.11;46.93;102571.84;5031841;28;19921;-73
2022/03/16 06:43:36;;;;;;;;;;;;;;;7.17;46.98;102581.00;5031930;28;19921;-75
2022/03/16 06:46:02;;;;;;;;;;;;;;;7.51;46.21;102589.06;5031363;28;20372;-73
2022/03/16 06:48:28;;;;;;;;;;;;;;;7.80;45.20;102583.34;5030011;28;19961;-74
2022/03/16 06:50:54;;;;;;;;;;;;;;;7.50;46.20;102590.13;5032593;28;20027;-72
2022/03/16 06:53:19;;;;;;;;;;;;;;;7.56;45.76;102583.06;5032447;28;20024;-71
2022/03/16 06:55:44;;;;;;;;;;;;;;;7.71;45.50;102586.44;5032610;28;19936;-71
2022/03/16 06:58:10;;;;;;;;;;;;;;;7.75;45.75;102591.22;5032101;28;19921;-73
2022/03/16 07:00:35;;;;;;;;;;;;;;;7.77;45.76;102583.75;5028010;28;19921;-74
2022/03/16 07:03:02;;;;;;;;;;;;;;;7.57;46.36;102587.41;5025015;28;20457;-72
2022/03/16 07:05:31;;;;;;;;;;;;;;;7.18;47.28;102583.53;5052230;28;20019;-72
2022/03/16 07:07:57;;;;;;;;;;;;;;;7.41;46.87;102580.50;5053563;28;19921;-72
2022/03/16 07:10:23;;;;;;;;;;;;;;;7.81;45.99;102576.91;5052897;28;19952;-75
2022/03/16 07:12:48;;;;;;;;;;;;;;;7.77;46.43;102572.94;5044583;28;19967;-74
2022/03/16 07:15:13;;;;;;;;;;;;;;;7.42;47.53;102584.03;5052929;28;19924;-74
2022/03/16 07:17:39;;;;;;;;;;;;;;;8.01;46.56;102583.16;5041075;28;19925;-73
2022/03/16 07:20:06;;;;;;;;;;;;;;;7.20;48.28;102581.47;5041567;28;19956;-73
2022/03/16 07:22:31;;;;;;;;;;;;;;;6.91;49.26;102584.34;5036914;28;19936;-72
2022/03/16 07:24:57;;;;;;;;;;;;;;;7.38;48.24;102582.78;5045245;28;19921;-72
2022/03/16 07:27:23;;;;;;;;;;;;;;;7.46;48.48;102582.59;5041499;28;20052;-73
2022/03/16 07:29:48;;;;;;;;;;;;;;;7.01;49.89;102581.31;5031774;28;20328;-72
2022/03/16 07:32:13;;;;;;;;;;;;;;;7.05;50.04;102575.34;5032682;28;19971;-72
2022/03/16 07:34:38;;;;;;;;;;;;;;;7.42;49.29;102576.78;5031472;28;19929;-72
2022/03/16 07:37:04;;;;;;;;;;;;;;;7.99;47.86;102571.72;5028961;28;20409;-72
2022/03/16 07:39:29;;;;;;;;;;;;;;;8.27;47.44;102568.03;5030947;28;19928;-71
2022/03/16 07:41:54;;;;;;;;;;;;;;;8.24;47.83;102565.72;5030879;28;19921;-72
2022/03/16 07:44:20;;;;;;;;;;;;;;;8.14;48.51;102566.16;5027795;28;19922;-70
2022/03/16 07:46:45;;;;;;;;;;;;;;;8.06;48.82;102566.34;5032082;28;19917;-70
2022/03/16 07:49:10;;;;;;;;;;;;;;;8.12;49.30;102560.09;5032040;28;20016;-72
2022/03/16 07:51:35;;;;;;;;;;;;;;;8.29;48.71;102555.19;5031740;28;19921;-72
2022/03/16 07:54:01;;;;;;;;;;;;;;;8.87;47.33;102556.97;5031933;28;19921;-71
2022/03/16 07:56:27;;;;;;;;;;;;;;;8.46;48.61;102553.72;5031386;28;19917;-72
2022/03/16 07:58:54;;;;;;;;;;;;;;;8.39;49.27;102552.88;5031863;28;19917;-72
2022/03/16 08:01:19;;;;;;;;;;;;;;;8.36;49.62;102547.88;5031996;28;19940;-72
2022/03/16 08:03:44;;;;;;;;;;;;;;;8.25;49.59;102548.50;5031221;28;19953;-72
2022/03/16 08:06:10;;;;;;;;;;;;;;;8.36;49.37;102554.13;5030891;28;19921;-73
2022/03/16 08:08:39;;;;;;;;;;;;;;;9.37;46.79;102552.66;5030574;28;19921;-71
2022/03/16 08:11:04;;;;;;;;;;;;;;;10.11;45.25;102555.59;5046380;28;20482;-73
2022/03/16 08:13:30;;;;;;;;;;;;;;;9.20;47.28;102555.00;5030497;28;19992;-72
2022/03/16 08:15:55;;;;;;;;;;;;;;;9.44;47.00;102557.03;5031337;28;20000;-72
2022/03/16 08:18:20;;;;;;;;;;;;;;;9.81;46.14;102544.53;5033029;28;19925;-72
2022/03/16 08:20:45;;;;;;;;;;;;;;;9.79;46.45;102546.63;5030808;28;19947;-73
2022/03/16 08:23:14;;;;;;;;;;;;;;;9.23;47.65;102548.34;5031878;28;19936;-72
2022/03/16 08:25:40;;;;;;;;;;;;;;;9.07;48.76;102537.97;5029043;28;19921;-71
2022/03/16 08:28:05;;;;;;;;;;;;;;;9.54;47.24;102534.88;5029920;28;19975;-73
2022/03/16 08:30:30;;;;;;;;;;;;;;;9.45;47.71;102533.50;5029759;28;19921;-72
2022/03/16 08:32:55;;;;;;;;;;;;;;;10.45;45.60;102528.78;5030685;28;19929;-72
2022/03/16 08:35:22;;;;;;;;;;;;;;;10.79;44.51;102523.88;5034035;28;19923;-72
2022/03/16 08:37:47;;;;;;;;;;;;;;;11.20;43.69;102529.47;5035552;28;19921;-71
2022/03/16 08:40:15;;;;;;;;;;;;;;;11.11;43.83;102520.81;5035001;28;19966;-72
2022/03/16 08:42:40;;;;;;;;;;;;;;;11.07;44.27;102525.03;5035192;28;19921;-71
2022/03/16 08:45:06;;;;;;;;;;;;;;;10.38;45.13;102519.88;5034199;28;20273;-71
2022/03/16 08:47:31;;;;;;;;;;;;;;;10.99;44.60;102513.63;5016865;28;20317;-72
2022/03/16 08:49:56;;;;;;;;;;;;;;;11.42;42.87;102517.06;5035723;28;19940;-72
2022/03/16 08:52:22;;;;;;;;;;;;;;;10.78;43.88;102512.22;5035002;28;19917;-71
2022/03/16 08:54:47;;;;;;;;;;;;;;;10.34;44.92;102515.97;5034632;28;19921;-70
2022/03/16 08:57:14;;;;;;;;;;;;;;;11.30;43.16;102511.56;5035056;28;19927;-71
2022/03/16 08:59:39;;;;;;;;;;;;;;;11.07;43.75;102522.31;5034491;28;19921;-72
2022/03/16 09:02:05;;;;;;;;;;;;;;;10.85;43.81;102512.13;5034883;28;19940;-71
2022/03/16 09:04:31;;;;;;;;;;;;;;;11.04;43.39;102509.19;5034695;28;19925;-71
2022/03/16 09:06:57;;;;;;;;;;;;;;;11.81;41.99;102516.53;5034565;28;19929;-73
2022/03/16 09:09:22;;;;;;;;;;;;;;;12.08;41.26;102501.44;5034487;28;19955;-69
2022/03/16 09:11:48;;;;;;;;;;;;;;;11.82;41.30;102499.16;5034293;28;19924;-71
2022/03/16 09:14:14;;;;;;;;;;;;;;;11.75;41.64;102501.13;5034587;28;19923;-71
2022/03/16 09:16:39;;;;;;;;;;;;;;;12.33;40.50;102485.75;5034220;28;20009;-72
2022/03/16 09:19:04;;;;;;;;;;;;;;;11.98;41.13;102497.66;5033592;28;19928;-74
2022/03/16 09:21:30;;;;;;;;;;;;;;;12.74;39.73;102486.69;5033749;28;19971;-70
2022/03/16 09:23:55;;;;;;;;;;;;;;;12.76;39.60;102503.63;5034100;28;19944;-72
2022/03/16 09:26:21;;;;;;;;;;;;;;;12.79;39.46;102493.06;5034537;28;20493;-69
2022/03/16 09:28:47;;;;;;;;;;;;;;;12.12;40.56;102496.41;5034278;28;20020;-71
2022/03/16 09:31:12;;;;;;;;;;;;;;;12.97;38.35;102489.38;5034176;28;19996;-70
2022/03/16 09:33:38;;;;;;;;;;;;;;;13.35;37.92;102488.81;5033998;28;20277;-70
2022/03/16 09:36:08;;;;;;;;;;;;;;;13.46;37.52;102488.75;5034364;28;19925;-70
2022/03/16 09:38:36;;;;;;;;;;;;;;;13.21;38.04;102480.06;5033268;28;19974;-74
2022/03/16 09:41:03;;;;;;;;;;;;;;;12.83;37.54;102475.19;5033054;28;19917;-72
2022/03/16 09:43:35;;;;;;;;;;;;;;;12.66;38.09;102473.44;5034126;28;19952;-71
2022/03/16 09:46:06;;;;;;;;;;;;;;;12.42;37.76;102481.63;5033245;28;19922;-72
2022/03/16 09:48:32;;;;;;;;;;;;;;;13.37;36.46;102483.94;5034558;28;19925;-71
2022/03/16 09:50:58;;;;;;;;;;;;;;;12.33;37.35;102476.75;5042854;28;19929;-72
2022/03/16 09:53:26;;;;;;;;;;;;;;;13.09;36.67;102473.81;5035907;28;19917;-72
2022/03/16 09:55:52;;;;;;;;;;;;;;;12.44;37.65;102472.41;5033045;28;20399;-72
2022/03/16 09:58:20;;;;;;;;;;;;;;;13.34;36.35;102466.16;5033671;28;19924;-72
2022/03/16 10:00:45;;;;;;;;;;;;;;;13.11;36.56;102468.94;5034033;28;20443;-72
2022/03/16 10:03:12;;;;;;;;;;;;;;;13.68;35.67;102454.25;5032371;28;19921;-72
2022/03/16 10:05:38;;;;;;;;;;;;;;;13.42;36.09;102465.78;5034026;28;19988;-74
2022/03/16 10:08:08;;;;;;;;;;;;;;;14.13;34.20;102456.91;5034450;28;19929;-71
2022/03/16 10:13:19;;;;;;;;;;;;;;;14.07;33.91;102466.09;5034203;28;19990;-72
2022/03/16 10:15:44;;;;;;;;;;;;;;;14.17;33.71;102463.53;5032795;28;20384;-72
2022/03/16 10:18:10;;;;;;;;;;;;;;;13.37;34.08;102464.84;5040055;28;19925;-71
2022/03/16 10:20:37;;;;;;;;;;;;;;;14.29;32.63;102458.00;5053762;28;19966;-71
2022/03/16 10:23:04;;;;;;;;;;;;;;;13.73;32.89;102459.00;5054310;28;19917;-73
2022/03/16 10:25:31;;;;;;;;;;;;;;;14.32;32.57;102462.97;5053838;28;19917;-72
2022/03/16 10:28:10;;;;;;;;;;;;;;;13.84;33.08;102449.91;5053910;28;19963;-73
2022/03/16 10:30:38;;;;;;;;;;;;;;;13.30;33.49;102452.16;5053846;28;19927;-72
2022/03/16 10:33:03;;;;;;;;;;;;;;;13.91;33.50;102454.09;5054021;28;19916;-72
2022/03/16 10:35:28;;;;;;;;;;;;;;;13.73;33.80;102457.09;5053847;28;20023;-72
2022/03/16 10:38:06;;;;;;;;;;;;;;;14.39;32.25;102458.16;5054034;28;19921;-72
2022/03/16 10:40:31;;;;;;;;;;;;;;;14.50;32.46;102454.50;5053438;28;20066;-72
2022/03/16 10:48:24;;;;;;;;;;;;;;;14.02;32.88;102449.66;5053278;28;19927;-72
2022/03/16 10:50:50;;;;;;;;;;;;;;;13.86;32.71;102461.38;5053169;28;20004;-71
2022/03/16 10:53:17;;;;;;;;;;;;;;;13.73;32.61;102448.91;5053980;28;19913;-71
2022/03/16 10:55:43;;;;;;;;;;;;;;;14.70;32.10;102455.59;5052748;28;20404;-72
2022/03/16 10:58:09;;;;;;;;;;;;;;;14.09;32.80;102442.09;5052091;28;19970;-73
2022/03/16 11:00:38;;;;;;;;;;;;;;;15.45;30.56;102446.66;5052892;28;19967;-72
2022/03/16 11:03:06;;;;;;;;;;;;;;;15.99;29.96;102444.72;5052738;28;19917;-72
2022/03/16 11:05:36;;;;;;;;;;;;;;;15.48;30.50;102440.69;5052754;28;20375;-71
2022/03/16 11:08:04;;;;;;;;;;;;;;;15.19;30.31;102437.34;5053982;28;19917;-73
2022/03/16 11:10:30;;;;;;;;;;;;;;;15.57;29.39;102430.91;5053282;28;19946;-71
2022/03/16 11:15:40;;;;;;;;;;;;;;;14.84;30.84;102456.06;5053232;28;19927;-73
2022/03/16 11:18:06;;;;;;;;;;;;;;;14.69;31.01;102458.59;5052266;28;19925;-73
2022/03/16 11:20:33;;;;;;;;;;;;;;;14.75;30.28;102457.59;5051142;28;19979;-74
2022/03/16 11:25:51;;;;;;;;;;;;;;;15.39;29.58;102444.97;5052675;28;20598;-73
2022/03/16 11:28:19;;;;;;;;;;;;;;;15.84;28.79;102456.34;5052151;28;19924;-73
2022/03/16 11:30:45;;;;;;;;;;;;;;;15.57;28.82;102439.13;5038015;28;19928;-73
2022/03/16 11:33:12;;;;;;;;;;;;;;;15.08;29.49;102426.56;5032210;28;19920;-72
2022/03/16 11:35:44;;;;;;;;;;;;;;;15.90;28.69;102416.16;5032704;28;19929;-74
2022/03/16 11:38:16;;;;;;;;;;;;;;;15.25;29.50;102414.47;5033518;28;20285;-73
2022/03/16 11:40:46;;;;;;;;;;;;;;;15.51;29.36;102431.94;5032565;28;20425;-71
2022/03/16 11:43:12;;;;;;;;;;;;;;;15.29;29.19;102433.91;5033085;28;19982;-74
2022/03/16 11:45:40;;;;;;;;;;;;;;;16.79;27.69;102437.00;5032323;28;19924;-72
2022/03/16 11:48:24;;;;;;;;;;;;;;;16.31;28.45;102423.59;5031520;28;19968;-73
2022/03/16 11:51:05;;;;;;;;;;;;;;;16.30;28.29;102436.47;5030719;28;19959;-74
2022/03/16 11:53:51;;;;;;;;;;;;;;;16.53;27.94;102429.72;5013169;28;19913;-74
2022/03/16 11:56:21;;;;;;;;;;;;;;;15.72;28.74;102420.94;5024886;28;19971;-73
2022/03/16 11:58:47;;;;;;;;;;;;;;;16.40;27.88;102422.00;5032275;28;20316;-73
2022/03/16 12:01:32;;;;;;;;;;;;;;;16.94;27.04;102415.13;5032098;28;19928;-73
2022/03/16 12:04:02;;;;;;;;;;;;;;;16.60;27.10;102411.97;5030925;28;19924;-74
2022/03/16 12:06:30;;;;;;;;;;;;;;;16.32;27.91;102406.88;5031318;28;19921;-73
2022/03/16 12:08:59;;;;;;;;;;;;;;;17.03;27.01;102402.56;5031014;28;19953;-73
2022/03/16 12:14:08;;;;;;;;;;;;;;;16.51;27.49;102382.59;5032115;28;19916;-73
2022/03/16 12:16:40;;;;;;;;;;;;;;;15.96;27.98;102383.09;5031631;28;19925;-75
2022/03/16 12:19:24;;;;;;;;;;;;;;;16.80;27.40;102383.03;5033886;28;19934;-72
2022/03/16 12:21:50;;;;;;;;;;;;;;;17.80;25.76;102372.22;5050738;28;19921;-72
2022/03/16 12:30:00;;;;;;;;;;;;;;;16.36;27.80;102358.69;5049601;28;19928;-71
2022/03/16 12:32:27;;;;;;;;;;;;;;;16.94;27.29;102359.50;5051176;28;19912;-73
2022/03/16 12:34:57;;;;;;;;;;;;;;;16.53;27.34;102362.06;5051841;28;19958;-73
2022/03/16 12:37:23;;;;;;;;;;;;;;;17.21;26.73;102363.63;5049526;28;19940;-74
2022/03/16 12:39:49;;;;;;;;;;;;;;;16.79;26.69;102357.53;5037025;28;20372;-74
2022/03/16 12:42:32;;;;;;;;;;;;;;;17.41;25.67;102349.13;5056490;28;20015;-72
2022/03/16 12:45:03;;;;;;;;;;;;;;;17.23;26.79;102355.16;5071452;28;19921;-73
2022/03/16 12:47:31;;;;;;;;;;;;;;;17.43;25.86;102349.69;5066051;28;19921;-73
2022/03/16 12:49:56;;;;;;;;;;;;;;;17.78;25.35;102337.88;5069639;28;20425;-74
2022/03/16 12:52:21;;;;;;;;;;;;;;;17.23;26.49;102344.19;5071856;28;19955;-73
2022/03/16 12:54:47;;;;;;;;;;;;;;;17.01;26.59;102349.91;5070143;28;19920;-73
2022/03/16 12:57:15;;;;;;;;;;;;;;;17.52;25.64;102350.81;5056540;28;19944;-73
2022/03/16 12:59:46;;;;;;;;;;;;;;;16.89;26.56;102346.59;5051620;28;19941;-75